sensor_id;sensor_type;location;lat;lon;timestamp;P1;durP1;ratioP1;P2;durP2;ratioP2
72924;SDS011;61070;50.794;7.054;2022-07-06T00:01:19;5.65;;;1.92;;
72924;SDS011;61070;50.794;7.054;2022-07-06T00:03:45;10.02;;;1.70;;
72924;SDS011;61070;50.794;7.054;2022-07-06T00:06:11;5.07;;;1.83;;
72924;SDS011;61070;50.794;7.054;2022-07-06T00:08:36;8.10;;;1.67;;
72924;SDS011;61070;50.794;7.054;2022-07-06T00:11:02;3.85;;;1.63;;
72924;SDS011;61070;50.794;7.054;2022-07-06T00:13:28;4.25;;;1.70;;
72924;SDS011;61070;50.794;7.054;2022-07-06T00:15:54;4.65;;;1.63;;
72924;SDS011;61070;50.794;7.054;2022-07-06T00:18:19;5.78;;;1.60;;
72924;SDS011;61070;50.794;7.054;2022-07-06T00:20:45;9.85;;;1.60;;
72924;SDS011;61070;50.794;7.054;2022-07-06T00:23:10;5.25;;;1.90;;
72924;SDS011;61070;50.794;7.054;2022-07-06T00:25:36;4.18;;;1.58;;
72924;SDS011;61070;50.794;7.054;2022-07-06T00:28:01;5.60;;;1.67;;
72924;SDS011;61070;50.794;7.054;2022-07-06T00:30:27;8.27;;;2.13;;
72924;SDS011;61070;50.794;7.054;2022-07-06T00:32:53;5.68;;;1.77;;
72924;SDS011;61070;50.794;7.054;2022-07-06T00:35:18;4.80;;;1.63;;
72924;SDS011;61070;50.794;7.054;2022-07-06T00:37:44;2.72;;;1.50;;
72924;SDS011;61070;50.794;7.054;2022-07-06T00:40:09;3.10;;;1.70;;
72924;SDS011;61070;50.794;7.054;2022-07-06T00:42:53;5.30;;;1.70;;
72924;SDS011;61070;50.794;7.054;2022-07-06T00:45:18;9.23;;;2.08;;
72924;SDS011;61070;50.794;7.054;2022-07-06T00:47:44;6.35;;;2.00;;
72924;SDS011;61070;50.794;7.054;2022-07-06T00:50:10;4.13;;;2.00;;
72924;SDS011;61070;50.794;7.054;2022-07-06T00:52:57;5.88;;;1.92;;
72924;SDS011;61070;50.794;7.054;2022-07-06T00:55:26;5.85;;;2.17;;
72924;SDS011;61070;50.794;7.054;2022-07-06T00:57:53;3.97;;;2.00;;
72924;SDS011;61070;50.794;7.054;2022-07-06T01:00:20;3.25;;;2.17;;
72924;SDS011;61070;50.794;7.054;2022-07-06T01:02:47;4.05;;;1.98;;
72924;SDS011;61070;50.794;7.054;2022-07-06T01:05:13;6.45;;;2.60;;
72924;SDS011;61070;50.794;7.054;2022-07-06T01:07:41;6.50;;;2.22;;
72924;SDS011;61070;50.794;7.054;2022-07-06T01:10:09;5.47;;;2.00;;
72924;SDS011;61070;50.794;7.054;2022-07-06T01:12:36;3.97;;;2.35;;
72924;SDS011;61070;50.794;7.054;2022-07-06T01:15:03;5.05;;;1.95;;
72924;SDS011;61070;50.794;7.054;2022-07-06T01:17:30;6.75;;;2.10;;
72924;SDS011;61070;50.794;7.054;2022-07-06T01:19:57;3.63;;;1.88;;
72924;SDS011;61070;50.794;7.054;2022-07-06T01:22:22;8.48;;;2.42;;
72924;SDS011;61070;50.794;7.054;2022-07-06T01:24:47;10.05;;;2.67;;
72924;SDS011;61070;50.794;7.054;2022-07-06T01:27:13;13.07;;;2.70;;
72924;SDS011;61070;50.794;7.054;2022-07-06T01:29:38;11.63;;;2.78;;
72924;SDS011;61070;50.794;7.054;2022-07-06T01:32:04;6.22;;;2.67;;
72924;SDS011;61070;50.794;7.054;2022-07-06T01:34:30;6.72;;;2.15;;
72924;SDS011;61070;50.794;7.054;2022-07-06T01:36:55;4.72;;;2.10;;
72924;SDS011;61070;50.794;7.054;2022-07-06T01:39:20;3.67;;;2.15;;
72924;SDS011;61070;50.794;7.054;2022-07-06T01:41:46;6.60;;;1.98;;
72924;SDS011;61070;50.794;7.054;2022-07-06T01:44:11;5.57;;;2.35;;
72924;SDS011;61070;50.794;7.054;2022-07-06T01:46:38;10.48;;;2.10;;
72924;SDS011;61070;50.794;7.054;2022-07-06T01:49:03;6.25;;;2.20;;
72924;SDS011;61070;50.794;7.054;2022-07-06T01:51:29;5.72;;;2.53;;
72924;SDS011;61070;50.794;7.054;2022-07-06T01:53:55;5.63;;;2.63;;
72924;SDS011;61070;50.794;7.054;2022-07-06T01:56:20;6.35;;;2.30;;
72924;SDS011;61070;50.794;7.054;2022-07-06T01:58:46;6.18;;;2.55;;
72924;SDS011;61070;50.794;7.054;2022-07-06T02:01:14;3.00;;;2.08;;
72924;SDS011;61070;50.794;7.054;2022-07-06T02:03:43;5.07;;;2.55;;
72924;SDS011;61070;50.794;7.054;2022-07-06T02:06:09;7.03;;;2.58;;
72924;SDS011;61070;50.794;7.054;2022-07-06T02:08:36;8.00;;;2.35;;
72924;SDS011;61070;50.794;7.054;2022-07-06T02:11:03;7.78;;;2.63;;
72924;SDS011;61070;50.794;7.054;2022-07-06T02:13:29;5.50;;;2.42;;
72924;SDS011;61070;50.794;7.054;2022-07-06T02:15:54;5.32;;;2.22;;
72924;SDS011;61070;50.794;7.054;2022-07-06T02:18:20;6.32;;;2.30;;
72924;SDS011;61070;50.794;7.054;2022-07-06T02:20:45;3.97;;;2.03;;
72924;SDS011;61070;50.794;7.054;2022-07-06T02:23:11;8.60;;;2.17;;
72924;SDS011;61070;50.794;7.054;2022-07-06T02:25:36;7.28;;;2.50;;
72924;SDS011;61070;50.794;7.054;2022-07-06T02:28:01;7.22;;;2.40;;
72924;SDS011;61070;50.794;7.054;2022-07-06T02:30:27;9.65;;;2.60;;
72924;SDS011;61070;50.794;7.054;2022-07-06T02:32:52;7.72;;;3.05;;
72924;SDS011;61070;50.794;7.054;2022-07-06T02:35:18;7.20;;;3.58;;
72924;SDS011;61070;50.794;7.054;2022-07-06T02:37:43;15.75;;;4.05;;
72924;SDS011;61070;50.794;7.054;2022-07-06T02:40:09;8.30;;;3.53;;
72924;SDS011;61070;50.794;7.054;2022-07-06T02:42:35;11.70;;;2.88;;
72924;SDS011;61070;50.794;7.054;2022-07-06T02:45:00;8.15;;;3.85;;
72924;SDS011;61070;50.794;7.054;2022-07-06T02:47:26;8.40;;;3.78;;
72924;SDS011;61070;50.794;7.054;2022-07-06T02:49:51;7.18;;;3.20;;
72924;SDS011;61070;50.794;7.054;2022-07-06T02:52:17;5.43;;;3.05;;
72924;SDS011;61070;50.794;7.054;2022-07-06T02:54:43;8.70;;;3.10;;
72924;SDS011;61070;50.794;7.054;2022-07-06T02:57:08;9.10;;;3.20;;
72924;SDS011;61070;50.794;7.054;2022-07-06T02:59:33;6.50;;;3.03;;
72924;SDS011;61070;50.794;7.054;2022-07-06T03:01:59;16.77;;;3.30;;
72924;SDS011;61070;50.794;7.054;2022-07-06T03:04:24;11.05;;;3.47;;
72924;SDS011;61070;50.794;7.054;2022-07-06T03:06:49;8.00;;;3.20;;
72924;SDS011;61070;50.794;7.054;2022-07-06T03:09:15;6.47;;;2.80;;
72924;SDS011;61070;50.794;7.054;2022-07-06T03:11:40;7.03;;;3.17;;
72924;SDS011;61070;50.794;7.054;2022-07-06T03:14:05;12.23;;;3.08;;
72924;SDS011;61070;50.794;7.054;2022-07-06T03:16:31;7.00;;;2.75;;
72924;SDS011;61070;50.794;7.054;2022-07-06T03:18:57;8.00;;;2.72;;
72924;SDS011;61070;50.794;7.054;2022-07-06T03:21:23;6.13;;;3.40;;
72924;SDS011;61070;50.794;7.054;2022-07-06T03:23:51;6.38;;;2.72;;
72924;SDS011;61070;50.794;7.054;2022-07-06T03:26:17;8.02;;;3.22;;
72924;SDS011;61070;50.794;7.054;2022-07-06T03:28:42;8.73;;;3.13;;
72924;SDS011;61070;50.794;7.054;2022-07-06T03:31:08;6.90;;;3.55;;
72924;SDS011;61070;50.794;7.054;2022-07-06T03:33:33;5.60;;;2.55;;
72924;SDS011;61070;50.794;7.054;2022-07-06T03:35:58;8.38;;;2.95;;
72924;SDS011;61070;50.794;7.054;2022-07-06T03:38:24;9.25;;;3.33;;
72924;SDS011;61070;50.794;7.054;2022-07-06T03:40:49;6.75;;;2.97;;
72924;SDS011;61070;50.794;7.054;2022-07-06T03:43:14;6.10;;;2.53;;
72924;SDS011;61070;50.794;7.054;2022-07-06T03:45:40;10.95;;;2.83;;
72924;SDS011;61070;50.794;7.054;2022-07-06T03:48:05;8.05;;;3.15;;
72924;SDS011;61070;50.794;7.054;2022-07-06T03:50:31;9.82;;;3.10;;
72924;SDS011;61070;50.794;7.054;2022-07-06T03:52:56;6.75;;;2.78;;
72924;SDS011;61070;50.794;7.054;2022-07-06T03:55:22;5.00;;;2.28;;
72924;SDS011;61070;50.794;7.054;2022-07-06T03:57:47;4.60;;;2.65;;
72924;SDS011;61070;50.794;7.054;2022-07-06T04:00:13;5.80;;;2.58;;
72924;SDS011;61070;50.794;7.054;2022-07-06T04:02:39;5.07;;;2.67;;
72924;SDS011;61070;50.794;7.054;2022-07-06T04:05:05;7.72;;;2.75;;
72924;SDS011;61070;50.794;7.054;2022-07-06T04:07:31;8.65;;;2.92;;
72924;SDS011;61070;50.794;7.054;2022-07-06T04:09:56;7.40;;;3.13;;
72924;SDS011;61070;50.794;7.054;2022-07-06T04:12:23;8.00;;;3.13;;
72924;SDS011;61070;50.794;7.054;2022-07-06T04:14:48;13.77;;;2.97;;
72924;SDS011;61070;50.794;7.054;2022-07-06T04:17:13;7.07;;;3.22;;
72924;SDS011;61070;50.794;7.054;2022-07-06T04:19:57;9.48;;;2.47;;
72924;SDS011;61070;50.794;7.054;2022-07-06T04:22:23;11.25;;;2.85;;
72924;SDS011;61070;50.794;7.054;2022-07-06T04:24:48;18.05;;;3.75;;
72924;SDS011;61070;50.794;7.054;2022-07-06T04:27:14;7.72;;;2.85;;
72924;SDS011;61070;50.794;7.054;2022-07-06T04:29:39;5.88;;;2.80;;
72924;SDS011;61070;50.794;7.054;2022-07-06T04:32:05;9.85;;;3.70;;
72924;SDS011;61070;50.794;7.054;2022-07-06T04:34:30;11.13;;;3.50;;
72924;SDS011;61070;50.794;7.054;2022-07-06T04:36:56;9.63;;;3.20;;
72924;SDS011;61070;50.794;7.054;2022-07-06T04:39:21;6.43;;;3.42;;
72924;SDS011;61070;50.794;7.054;2022-07-06T04:41:46;9.80;;;3.22;;
72924;SDS011;61070;50.794;7.054;2022-07-06T04:44:12;9.20;;;3.45;;
72924;SDS011;61070;50.794;7.054;2022-07-06T04:46:37;7.57;;;3.65;;
72924;SDS011;61070;50.794;7.054;2022-07-06T04:49:03;6.60;;;3.10;;
72924;SDS011;61070;50.794;7.054;2022-07-06T04:51:28;7.32;;;3.10;;
72924;SDS011;61070;50.794;7.054;2022-07-06T04:53:53;13.75;;;3.50;;
72924;SDS011;61070;50.794;7.054;2022-07-06T04:56:19;9.52;;;4.18;;
72924;SDS011;61070;50.794;7.054;2022-07-06T04:58:44;9.38;;;3.45;;
72924;SDS011;61070;50.794;7.054;2022-07-06T05:01:09;9.13;;;3.30;;
72924;SDS011;61070;50.794;7.054;2022-07-06T05:03:35;9.82;;;3.88;;
72924;SDS011;61070;50.794;7.054;2022-07-06T05:06:04;17.15;;;3.75;;
72924;SDS011;61070;50.794;7.054;2022-07-06T05:08:30;11.40;;;3.90;;
72924;SDS011;61070;50.794;7.054;2022-07-06T05:10:56;6.63;;;3.20;;
72924;SDS011;61070;50.794;7.054;2022-07-06T05:13:21;14.57;;;3.45;;
72924;SDS011;61070;50.794;7.054;2022-07-06T05:15:46;7.60;;;3.33;;
72924;SDS011;61070;50.794;7.054;2022-07-06T05:18:12;9.80;;;4.43;;
72924;SDS011;61070;50.794;7.054;2022-07-06T05:20:37;9.35;;;3.50;;
72924;SDS011;61070;50.794;7.054;2022-07-06T05:23:03;10.20;;;3.75;;
72924;SDS011;61070;50.794;7.054;2022-07-06T05:25:28;9.73;;;3.92;;
72924;SDS011;61070;50.794;7.054;2022-07-06T05:27:53;9.95;;;4.20;;
72924;SDS011;61070;50.794;7.054;2022-07-06T05:30:19;12.63;;;4.07;;
72924;SDS011;61070;50.794;7.054;2022-07-06T05:32:44;14.32;;;3.85;;
72924;SDS011;61070;50.794;7.054;2022-07-06T05:35:10;16.35;;;5.18;;
72924;SDS011;61070;50.794;7.054;2022-07-06T05:37:35;8.00;;;3.83;;
72924;SDS011;61070;50.794;7.054;2022-07-06T05:40:00;9.93;;;4.30;;
72924;SDS011;61070;50.794;7.054;2022-07-06T05:42:26;11.50;;;3.55;;
72924;SDS011;61070;50.794;7.054;2022-07-06T05:44:54;7.82;;;4.45;;
72924;SDS011;61070;50.794;7.054;2022-07-06T05:47:21;6.35;;;3.75;;
72924;SDS011;61070;50.794;7.054;2022-07-06T05:50:05;9.93;;;4.07;;
72924;SDS011;61070;50.794;7.054;2022-07-06T05:52:37;15.98;;;4.57;;
72924;SDS011;61070;50.794;7.054;2022-07-06T05:55:03;11.95;;;4.20;;
72924;SDS011;61070;50.794;7.054;2022-07-06T05:57:29;11.30;;;4.63;;
72924;SDS011;61070;50.794;7.054;2022-07-06T05:59:54;11.77;;;3.95;;
72924;SDS011;61070;50.794;7.054;2022-07-06T06:02:20;10.68;;;3.70;;
72924;SDS011;61070;50.794;7.054;2022-07-06T06:04:45;18.10;;;3.50;;
72924;SDS011;61070;50.794;7.054;2022-07-06T06:07:10;5.15;;;2.90;;
72924;SDS011;61070;50.794;7.054;2022-07-06T06:09:36;5.38;;;2.83;;
72924;SDS011;61070;50.794;7.054;2022-07-06T06:12:01;7.45;;;2.80;;
72924;SDS011;61070;50.794;7.054;2022-07-06T06:14:26;8.82;;;3.00;;
72924;SDS011;61070;50.794;7.054;2022-07-06T06:16:52;8.48;;;2.88;;
72924;SDS011;61070;50.794;7.054;2022-07-06T06:19:17;9.13;;;3.17;;
72924;SDS011;61070;50.794;7.054;2022-07-06T06:21:42;8.77;;;3.08;;
72924;SDS011;61070;50.794;7.054;2022-07-06T06:24:08;8.80;;;3.53;;
72924;SDS011;61070;50.794;7.054;2022-07-06T06:26:33;8.82;;;3.33;;
72924;SDS011;61070;50.794;7.054;2022-07-06T06:28:59;9.60;;;2.78;;
72924;SDS011;61070;50.794;7.054;2022-07-06T06:31:24;13.18;;;3.10;;
72924;SDS011;61070;50.794;7.054;2022-07-06T06:33:49;7.00;;;2.95;;
72924;SDS011;61070;50.794;7.054;2022-07-06T06:36:15;12.93;;;3.28;;
72924;SDS011;61070;50.794;7.054;2022-07-06T06:38:40;9.05;;;2.92;;
72924;SDS011;61070;50.794;7.054;2022-07-06T06:41:05;8.77;;;2.40;;
72924;SDS011;61070;50.794;7.054;2022-07-06T06:43:31;12.98;;;2.70;;
72924;SDS011;61070;50.794;7.054;2022-07-06T06:45:56;9.77;;;2.40;;
72924;SDS011;61070;50.794;7.054;2022-07-06T06:48:22;7.13;;;2.42;;
72924;SDS011;61070;50.794;7.054;2022-07-06T06:50:47;11.60;;;2.60;;
72924;SDS011;61070;50.794;7.054;2022-07-06T06:53:12;9.73;;;2.92;;
72924;SDS011;61070;50.794;7.054;2022-07-06T06:55:38;13.48;;;1.95;;
72924;SDS011;61070;50.794;7.054;2022-07-06T06:58:03;12.20;;;2.58;;
72924;SDS011;61070;50.794;7.054;2022-07-06T07:00:29;8.80;;;2.00;;
72924;SDS011;61070;50.794;7.054;2022-07-06T07:02:54;7.45;;;1.90;;
72924;SDS011;61070;50.794;7.054;2022-07-06T07:05:20;6.93;;;1.60;;
72924;SDS011;61070;50.794;7.054;2022-07-06T07:07:45;11.20;;;2.22;;
72924;SDS011;61070;50.794;7.054;2022-07-06T07:10:11;10.98;;;2.10;;
72924;SDS011;61070;50.794;7.054;2022-07-06T07:12:41;3.20;;;1.60;;
72924;SDS011;61070;50.794;7.054;2022-07-06T07:15:11;6.20;;;1.83;;
72924;SDS011;61070;50.794;7.054;2022-07-06T07:17:37;21.10;;;2.47;;
72924;SDS011;61070;50.794;7.054;2022-07-06T07:20:03;17.98;;;2.15;;
72924;SDS011;61070;50.794;7.054;2022-07-06T07:22:29;8.35;;;2.03;;
72924;SDS011;61070;50.794;7.054;2022-07-06T07:24:54;7.90;;;2.15;;
72924;SDS011;61070;50.794;7.054;2022-07-06T07:27:20;8.48;;;1.90;;
72924;SDS011;61070;50.794;7.054;2022-07-06T07:29:45;11.77;;;1.70;;
72924;SDS011;61070;50.794;7.054;2022-07-06T07:32:11;4.90;;;1.50;;
72924;SDS011;61070;50.794;7.054;2022-07-06T07:34:36;8.32;;;1.42;;
72924;SDS011;61070;50.794;7.054;2022-07-06T07:37:02;16.35;;;2.63;;
72924;SDS011;61070;50.794;7.054;2022-07-06T07:39:27;4.15;;;0.90;;
72924;SDS011;61070;50.794;7.054;2022-07-06T07:41:52;7.43;;;1.10;;
72924;SDS011;61070;50.794;7.054;2022-07-06T07:44:18;6.65;;;1.52;;
72924;SDS011;61070;50.794;7.054;2022-07-06T07:46:43;8.98;;;1.70;;
72924;SDS011;61070;50.794;7.054;2022-07-06T07:49:09;7.38;;;1.20;;
72924;SDS011;61070;50.794;7.054;2022-07-06T07:51:34;8.50;;;1.30;;
72924;SDS011;61070;50.794;7.054;2022-07-06T07:54:00;7.38;;;1.30;;
72924;SDS011;61070;50.794;7.054;2022-07-06T07:56:25;5.30;;;1.25;;
72924;SDS011;61070;50.794;7.054;2022-07-06T07:58:50;5.90;;;1.20;;
72924;SDS011;61070;50.794;7.054;2022-07-06T08:01:16;3.40;;;1.40;;
72924;SDS011;61070;50.794;7.054;2022-07-06T08:03:41;6.47;;;1.65;;
72924;SDS011;61070;50.794;7.054;2022-07-06T08:06:07;6.15;;;1.52;;
72924;SDS011;61070;50.794;7.054;2022-07-06T08:08:32;9.10;;;1.10;;
72924;SDS011;61070;50.794;7.054;2022-07-06T08:10:57;15.85;;;1.50;;
72924;SDS011;61070;50.794;7.054;2022-07-06T08:13:23;6.20;;;1.10;;
72924;SDS011;61070;50.794;7.054;2022-07-06T08:15:48;10.02;;;1.08;;
72924;SDS011;61070;50.794;7.054;2022-07-06T08:18:13;8.40;;;1.40;;
72924;SDS011;61070;50.794;7.054;2022-07-06T08:20:39;5.15;;;2.45;;
72924;SDS011;61070;50.794;7.054;2022-07-06T08:23:04;15.30;;;3.55;;
72924;SDS011;61070;50.794;7.054;2022-07-06T08:25:30;8.32;;;1.77;;
72924;SDS011;61070;50.794;7.054;2022-07-06T08:27:56;7.55;;;1.27;;
72924;SDS011;61070;50.794;7.054;2022-07-06T08:30:22;3.65;;;1.50;;
72924;SDS011;61070;50.794;7.054;2022-07-06T08:32:47;8.48;;;1.70;;
72924;SDS011;61070;50.794;7.054;2022-07-06T08:35:13;4.68;;;1.20;;
72924;SDS011;61070;50.794;7.054;2022-07-06T08:37:38;5.43;;;1.20;;
72924;SDS011;61070;50.794;7.054;2022-07-06T08:40:04;6.18;;;1.30;;
72924;SDS011;61070;50.794;7.054;2022-07-06T08:42:33;5.20;;;1.55;;
72924;SDS011;61070;50.794;7.054;2022-07-06T08:44:59;7.93;;;1.17;;
72924;SDS011;61070;50.794;7.054;2022-07-06T08:47:27;5.30;;;1.52;;
72924;SDS011;61070;50.794;7.054;2022-07-06T08:49:53;13.18;;;1.83;;
72924;SDS011;61070;50.794;7.054;2022-07-06T08:52:20;9.27;;;1.95;;
72924;SDS011;61070;50.794;7.054;2022-07-06T08:54:47;8.43;;;1.38;;
72924;SDS011;61070;50.794;7.054;2022-07-06T08:57:13;4.32;;;1.52;;
72924;SDS011;61070;50.794;7.054;2022-07-06T08:59:39;3.33;;;1.40;;
72924;SDS011;61070;50.794;7.054;2022-07-06T09:02:04;11.27;;;1.98;;
72924;SDS011;61070;50.794;7.054;2022-07-06T09:04:31;5.43;;;2.17;;
72924;SDS011;61070;50.794;7.054;2022-07-06T09:06:58;7.88;;;1.65;;
72924;SDS011;61070;50.794;7.054;2022-07-06T09:09:23;4.80;;;1.65;;
72924;SDS011;61070;50.794;7.054;2022-07-06T09:11:49;7.55;;;1.80;;
72924;SDS011;61070;50.794;7.054;2022-07-06T09:14:16;5.80;;;1.58;;
72924;SDS011;61070;50.794;7.054;2022-07-06T09:16:43;7.53;;;1.85;;
72924;SDS011;61070;50.794;7.054;2022-07-06T09:19:10;5.03;;;1.50;;
72924;SDS011;61070;50.794;7.054;2022-07-06T09:21:36;7.05;;;1.90;;
72924;SDS011;61070;50.794;7.054;2022-07-06T09:24:06;3.17;;;1.65;;
72924;SDS011;61070;50.794;7.054;2022-07-06T09:26:33;8.88;;;1.95;;
72924;SDS011;61070;50.794;7.054;2022-07-06T09:29:00;9.00;;;1.70;;
72924;SDS011;61070;50.794;7.054;2022-07-06T09:31:25;4.40;;;1.38;;
72924;SDS011;61070;50.794;7.054;2022-07-06T09:39:15;3.13;;;1.85;;
72924;SDS011;61070;50.794;7.054;2022-07-06T09:41:41;4.97;;;1.35;;
72924;SDS011;61070;50.794;7.054;2022-07-06T09:44:06;8.45;;;1.40;;
72924;SDS011;61070;50.794;7.054;2022-07-06T09:46:40;5.65;;;0.95;;
72924;SDS011;61070;50.794;7.054;2022-07-06T09:49:10;4.13;;;1.17;;
72924;SDS011;61070;50.794;7.054;2022-07-06T09:51:36;5.38;;;1.27;;
72924;SDS011;61070;50.794;7.054;2022-07-06T09:54:06;9.77;;;2.35;;
72924;SDS011;61070;50.794;7.054;2022-07-06T09:56:39;6.32;;;1.13;;
72924;SDS011;61070;50.794;7.054;2022-07-06T09:59:12;4.20;;;1.02;;
72924;SDS011;61070;50.794;7.054;2022-07-06T10:01:40;8.02;;;1.50;;
72924;SDS011;61070;50.794;7.054;2022-07-06T10:04:06;4.68;;;1.70;;
72924;SDS011;61070;50.794;7.054;2022-07-06T10:06:32;3.95;;;1.55;;
72924;SDS011;61070;50.794;7.054;2022-07-06T10:08:58;6.38;;;1.38;;
72924;SDS011;61070;50.794;7.054;2022-07-06T10:11:25;2.67;;;1.17;;
72924;SDS011;61070;50.794;7.054;2022-07-06T10:13:54;6.15;;;1.17;;
72924;SDS011;61070;50.794;7.054;2022-07-06T10:16:22;3.97;;;1.30;;
72924;SDS011;61070;50.794;7.054;2022-07-06T10:18:48;6.55;;;1.30;;
72924;SDS011;61070;50.794;7.054;2022-07-06T10:21:16;4.68;;;1.65;;
72924;SDS011;61070;50.794;7.054;2022-07-06T10:23:42;6.40;;;1.67;;
72924;SDS011;61070;50.794;7.054;2022-07-06T10:26:08;3.40;;;1.30;;
72924;SDS011;61070;50.794;7.054;2022-07-06T10:28:34;6.75;;;1.10;;
72924;SDS011;61070;50.794;7.054;2022-07-06T10:31:00;3.88;;;1.30;;
72924;SDS011;61070;50.794;7.054;2022-07-06T10:33:26;5.55;;;1.30;;
72924;SDS011;61070;50.794;7.054;2022-07-06T10:35:52;4.45;;;1.00;;
72924;SDS011;61070;50.794;7.054;2022-07-06T10:38:17;3.42;;;1.30;;
72924;SDS011;61070;50.794;7.054;2022-07-06T10:40:44;8.52;;;1.27;;
72924;SDS011;61070;50.794;7.054;2022-07-06T10:43:31;6.40;;;1.23;;
72924;SDS011;61070;50.794;7.054;2022-07-06T10:46:10;3.45;;;0.98;;
72924;SDS011;61070;50.794;7.054;2022-07-06T10:48:40;4.38;;;1.00;;
72924;SDS011;61070;50.794;7.054;2022-07-06T10:51:07;6.72;;;1.05;;
72924;SDS011;61070;50.794;7.054;2022-07-06T10:53:34;4.50;;;1.00;;
72924;SDS011;61070;50.794;7.054;2022-07-06T10:56:08;4.45;;;1.67;;
72924;SDS011;61070;50.794;7.054;2022-07-06T11:01:07;4.05;;;1.70;;
72924;SDS011;61070;50.794;7.054;2022-07-06T11:03:34;5.57;;;1.83;;
72924;SDS011;61070;50.794;7.054;2022-07-06T11:06:04;4.88;;;1.88;;
72924;SDS011;61070;50.794;7.054;2022-07-06T11:08:46;1.88;;;0.95;;
72924;SDS011;61070;50.794;7.054;2022-07-06T11:11:15;5.85;;;1.33;;
72924;SDS011;61070;50.794;7.054;2022-07-06T11:13:52;11.32;;;1.35;;
72924;SDS011;61070;50.794;7.054;2022-07-06T11:16:18;3.63;;;1.10;;
72924;SDS011;61070;50.794;7.054;2022-07-06T11:19:03;5.10;;;1.23;;
72924;SDS011;61070;50.794;7.054;2022-07-06T11:24:00;3.60;;;1.30;;
72924;SDS011;61070;50.794;7.054;2022-07-06T11:26:26;5.57;;;1.55;;
72924;SDS011;61070;50.794;7.054;2022-07-06T11:28:52;4.93;;;1.55;;
72924;SDS011;61070;50.794;7.054;2022-07-06T11:31:18;4.18;;;1.30;;
72924;SDS011;61070;50.794;7.054;2022-07-06T11:33:47;6.13;;;1.77;;
72924;SDS011;61070;50.794;7.054;2022-07-06T11:36:17;9.98;;;1.52;;
72924;SDS011;61070;50.794;7.054;2022-07-06T11:38:44;7.53;;;1.45;;
72924;SDS011;61070;50.794;7.054;2022-07-06T11:41:11;20.08;;;2.15;;
72924;SDS011;61070;50.794;7.054;2022-07-06T11:43:39;10.98;;;1.73;;
72924;SDS011;61070;50.794;7.054;2022-07-06T11:48:56;6.28;;;1.05;;
72924;SDS011;61070;50.794;7.054;2022-07-06T11:51:27;7.95;;;1.17;;
72924;SDS011;61070;50.794;7.054;2022-07-06T11:53:55;6.40;;;1.52;;
72924;SDS011;61070;50.794;7.054;2022-07-06T11:56:22;4.40;;;2.10;;
72924;SDS011;61070;50.794;7.054;2022-07-06T11:58:52;3.45;;;1.52;;
72924;SDS011;61070;50.794;7.054;2022-07-06T12:01:20;5.43;;;1.00;;
72924;SDS011;61070;50.794;7.054;2022-07-06T12:03:46;7.70;;;1.50;;
72924;SDS011;61070;50.794;7.054;2022-07-06T12:06:15;2.47;;;1.05;;
72924;SDS011;61070;50.794;7.054;2022-07-06T12:08:42;2.58;;;0.95;;
72924;SDS011;61070;50.794;7.054;2022-07-06T12:11:09;5.05;;;1.10;;
72924;SDS011;61070;50.794;7.054;2022-07-06T12:13:36;3.30;;;1.05;;
72924;SDS011;61070;50.794;7.054;2022-07-06T12:16:13;7.03;;;1.00;;
72924;SDS011;61070;50.794;7.054;2022-07-06T12:18:43;7.28;;;1.70;;
72924;SDS011;61070;50.794;7.054;2022-07-06T12:21:17;2.72;;;0.90;;
72924;SDS011;61070;50.794;7.054;2022-07-06T12:23:44;2.42;;;1.25;;
72924;SDS011;61070;50.794;7.054;2022-07-06T12:26:16;2.55;;;1.05;;
72924;SDS011;61070;50.794;7.054;2022-07-06T12:28:46;4.38;;;0.90;;
72924;SDS011;61070;50.794;7.054;2022-07-06T12:31:36;6.68;;;1.30;;
72924;SDS011;61070;50.794;7.054;2022-07-06T12:34:04;5.75;;;1.65;;
72924;SDS011;61070;50.794;7.054;2022-07-06T12:36:31;7.10;;;1.27;;
72924;SDS011;61070;50.794;7.054;2022-07-06T12:39:10;4.47;;;1.20;;
72924;SDS011;61070;50.794;7.054;2022-07-06T12:44:09;8.27;;;1.43;;
72924;SDS011;61070;50.794;7.054;2022-07-06T12:46:38;4.60;;;1.10;;
72924;SDS011;61070;50.794;7.054;2022-07-06T12:49:13;3.00;;;1.05;;
72924;SDS011;61070;50.794;7.054;2022-07-06T12:51:48;1.25;;;0.75;;
72924;SDS011;61070;50.794;7.054;2022-07-06T12:54:17;3.40;;;1.13;;
72924;SDS011;61070;50.794;7.054;2022-07-06T12:59:37;4.20;;;1.00;;
72924;SDS011;61070;50.794;7.054;2022-07-06T13:02:20;2.42;;;1.08;;
72924;SDS011;61070;50.794;7.054;2022-07-06T13:04:59;2.35;;;0.77;;
72924;SDS011;61070;50.794;7.054;2022-07-06T13:07:27;4.03;;;1.10;;
72924;SDS011;61070;50.794;7.054;2022-07-06T13:09:54;5.65;;;1.33;;
72924;SDS011;61070;50.794;7.054;2022-07-06T13:12:20;3.85;;;1.45;;
72924;SDS011;61070;50.794;7.054;2022-07-06T13:14:47;7.57;;;1.20;;
72924;SDS011;61070;50.794;7.054;2022-07-06T13:17:13;5.70;;;1.20;;
72924;SDS011;61070;50.794;7.054;2022-07-06T13:19:39;1.85;;;1.10;;
72924;SDS011;61070;50.794;7.054;2022-07-06T13:22:05;8.25;;;1.63;;
72924;SDS011;61070;50.794;7.054;2022-07-06T13:24:30;4.10;;;1.10;;
72924;SDS011;61070;50.794;7.054;2022-07-06T13:26:56;3.45;;;0.98;;
72924;SDS011;61070;50.794;7.054;2022-07-06T13:29:22;7.15;;;1.42;;
72924;SDS011;61070;50.794;7.054;2022-07-06T13:31:48;3.92;;;0.90;;
72924;SDS011;61070;50.794;7.054;2022-07-06T13:34:14;2.55;;;1.10;;
72924;SDS011;61070;50.794;7.054;2022-07-06T13:36:39;3.03;;;0.90;;
72924;SDS011;61070;50.794;7.054;2022-07-06T13:39:05;9.35;;;1.50;;
72924;SDS011;61070;50.794;7.054;2022-07-06T13:41:31;11.02;;;1.48;;
72924;SDS011;61070;50.794;7.054;2022-07-06T13:43:56;5.20;;;1.23;;
72924;SDS011;61070;50.794;7.054;2022-07-06T13:46:22;4.47;;;1.02;;
72924;SDS011;61070;50.794;7.054;2022-07-06T13:48:47;3.10;;;0.75;;
72924;SDS011;61070;50.794;7.054;2022-07-06T13:51:13;3.00;;;0.80;;
72924;SDS011;61070;50.794;7.054;2022-07-06T13:53:38;3.05;;;0.70;;
72924;SDS011;61070;50.794;7.054;2022-07-06T13:56:04;3.17;;;1.17;;
72924;SDS011;61070;50.794;7.054;2022-07-06T13:58:30;7.65;;;1.10;;
72924;SDS011;61070;50.794;7.054;2022-07-06T14:00:56;4.07;;;1.10;;
72924;SDS011;61070;50.794;7.054;2022-07-06T14:03:21;2.47;;;0.80;;
72924;SDS011;61070;50.794;7.054;2022-07-06T14:05:52;4.30;;;1.20;;
72924;SDS011;61070;50.794;7.054;2022-07-06T14:08:19;3.17;;;1.15;;
72924;SDS011;61070;50.794;7.054;2022-07-06T14:10:45;5.50;;;1.20;;
72924;SDS011;61070;50.794;7.054;2022-07-06T14:13:10;6.65;;;1.30;;
72924;SDS011;61070;50.794;7.054;2022-07-06T14:15:35;3.22;;;1.00;;
72924;SDS011;61070;50.794;7.054;2022-07-06T14:18:01;6.00;;;1.65;;
72924;SDS011;61070;50.794;7.054;2022-07-06T14:20:26;2.10;;;0.80;;
72924;SDS011;61070;50.794;7.054;2022-07-06T14:22:51;1.23;;;0.70;;
72924;SDS011;61070;50.794;7.054;2022-07-06T14:25:17;2.78;;;0.80;;
72924;SDS011;61070;50.794;7.054;2022-07-06T14:27:42;6.57;;;0.70;;
72924;SDS011;61070;50.794;7.054;2022-07-06T14:30:08;6.07;;;1.05;;
72924;SDS011;61070;50.794;7.054;2022-07-06T14:32:34;5.05;;;0.93;;
72924;SDS011;61070;50.794;7.054;2022-07-06T14:35:01;3.03;;;0.80;;
72924;SDS011;61070;50.794;7.054;2022-07-06T14:37:26;4.15;;;1.08;;
72924;SDS011;61070;50.794;7.054;2022-07-06T14:39:51;8.25;;;1.00;;
72924;SDS011;61070;50.794;7.054;2022-07-06T14:42:17;5.00;;;0.98;;
72924;SDS011;61070;50.794;7.054;2022-07-06T14:44:42;2.75;;;0.75;;
72924;SDS011;61070;50.794;7.054;2022-07-06T14:47:08;2.10;;;0.95;;
72924;SDS011;61070;50.794;7.054;2022-07-06T14:49:33;3.33;;;0.80;;
72924;SDS011;61070;50.794;7.054;2022-07-06T14:51:58;2.70;;;1.00;;
72924;SDS011;61070;50.794;7.054;2022-07-06T14:54:24;6.22;;;0.63;;
72924;SDS011;61070;50.794;7.054;2022-07-06T14:56:50;2.75;;;0.90;;
72924;SDS011;61070;50.794;7.054;2022-07-06T14:59:16;7.00;;;1.00;;
72924;SDS011;61070;50.794;7.054;2022-07-06T15:01:41;5.35;;;1.00;;